Date,TemperatureHighF,TemperatureAvgF,TemperatureLowF,DewpointHighF,DewpointAvgF,DewpointLowF,HumidityHigh,HumidityAvg,HumidityLow,PressureMaxIn,PressureMinIn,WindSpeedMaxMPH,WindSpeedAvgMPH,GustSpeedMaxMPH,PrecipitationSumIn
2013-1-1,73.0,63.2,55.0,70.0,60.2,51.0,92,90,85,30.14,29.86,10,6,18,1.88
2013-1-2,55.0,51.6,49.0,51.0,47.1,45.0,90,85,80,30.24,30.10,9,5,15,0.11
2013-1-3,60.0,51.7,48.0,47.0,43.6,40.0,89,75,49,30.37,30.23,8,4,16,0.08
2013-1-4,55.0,51.5,47.0,44.0,41.6,38.0,79,69,52,30.47,30.29,7,4,13,0.00
2013-1-5,53.0,51.2,50.0,49.0,46.9,43.0,92,86,71,30.32,30.21,7,4,13,1.10
2013-1-6,64.0,54.6,49.0,50.0,48.6,45.0,93,81,57,30.28,30.19,9,4,15,1.02
2013-1-7,63.0,54.1,45.0,51.0,46.9,43.0,92,78,60,30.29,30.11,8,2,14,0.01
2013-1-8,68.0,63.1,56.0,66.0,59.7,50.0,93,88,78,30.11,29.94,15,6,25,0.31
2013-1-9,73.0,69.4,67.0,71.0,67.4,65.0,94,93,92,30.08,29.91,13,6,21,3.76
2013-1-10,72.0,68.1,63.0,70.0,66.1,59.0,94,93,91,30.07,29.92,8,3,15,2.26
2013-1-11,76.0,67.5,57.0,74.0,62.5,55.0,94,85,60,30.04,29.91,7,3,12,0.02
2013-1-12,80.0,76.8,75.0,75.0,73.8,73.0,94,91,83,29.95,29.79,13,7,25,0.02
2013-1-13,77.0,63.0,53.0,74.0,60.1,50.0,92,90,84,30.09,29.71,18,7,29,0.14
2013-1-14,53.0,48.7,45.0,50.0,45.4,42.0,91,88,84,30.15,30.01,10,7,21,0.09
2013-1-15,47.0,45.0,43.0,45.0,42.9,40.0,92,91,88,30.07,29.97,10,5,16,0.70
2013-1-16,51.0,44.4,42.0,44.0,40.9,39.0,92,87,74,30.22,30.04,9,5,15,0.33
2013-1-17,65.0,50.5,40.0,44.0,38.6,34.0,88,66,38,30.43,30.20,9,3,14,0.01
2013-1-18,63.0,51.5,43.0,44.0,40.9,33.0,89,70,32,30.52,30.35,6,1,12,0.00
2013-1-19,68.0,54.4,43.0,54.0,48.4,40.0,93,82,55,30.35,30.19,4,1,8,0.00
2013-1-20,71.0,57.6,47.0,59.0,51.6,45.0,93,82,52,30.26,30.11,4,1,7,0.01
2013-1-21,73.0,59.8,49.0,59.0,52.1,47.0,94,78,48,30.21,30.12,4,1,8,0.01
2013-1-22,72.0,58.0,46.0,56.0,50.7,43.0,92,78,50,30.32,30.19,4,1,9,0.01
2013-1-23,76.0,63.3,50.0,63.0,57.6,48.0,94,82,60,30.35,30.24,7,2,14,0.01
2013-1-24,76.0,68.0,61.0,68.0,63.4,59.0,93,85,71,30.30,30.17,6,2,13,0.01
2013-1-25,78.0,70.3,64.0,69.0,65.1,61.0,93,84,71,30.20,30.09,9,3,17,0.01
2013-1-26,79.0,70.4,63.0,71.0,64.9,61.0,94,84,63,30.20,30.12,8,2,12,0.01
2013-1-27,78.0,71.6,65.0,69.0,66.0,62.0,91,83,68,30.18,30.09,10,5,19,0.01
2013-1-28,79.0,74.4,71.0,72.0,70.3,68.0,92,87,79,30.16,30.02,11,6,18,0.01
2013-1-29,82.0,76.8,74.0,76.0,73.3,72.0,93,89,80,30.03,29.67,14,10,25,0.00
2013-1-30,76.0,62.3,48.0,73.0,45.5,33.0,90,57,31,30.19,29.65,17,8,28,0.02
2013-1-31,65.0,61.6,46.0,47.0,36.3,26.0,90,42,24,30.30,30.18,9,5,15,0.00
2013-2-1,71.0,61.2,56.0,53.0,51.4,45.0,89,72,40,30.28,30.26,6,1,11,0.00
2013-2-2,76.0,63.4,54.0,61.0,56.7,51.0,93,80,55,30.27,30.16,8,2,14,0.00
2013-2-3,73.0,62.2,54.0,61.0,52.0,34.0,94,75,25,30.29,30.20,7,3,11,0.02
2013-2-6,68.0,66.9,66.0,66.0,64.8,63.0,93,92,91,29.96,29.87,14,6,23,0.78
2013-2-7,75.0,67.3,63.0,67.0,63.8,60.0,93,89,74,29.95,29.83,13,2,21,0.63
2013-2-8,72.0,65.6,57.0,65.0,60.7,53.0,94,85,66,30.14,29.93,8,3,14,0.00
2013-2-9,73.0,64.6,55.0,68.0,60.4,52.0,90,86,77,30.15,29.93,11,6,19,0.00
2013-2-10,82.0,74.7,69.0,76.0,70.6,65.0,92,87,81,29.94,29.82,12,6,22,0.01
2013-2-11,71.0,67.4,61.0,68.0,64.1,56.0,92,89,82,30.00,29.91,9,4,17,0.23
2013-2-13,66.0,58.3,51.0,50.0,47.4,45.0,84,68,50,30.06,29.97,6,3,10,0.04
2013-2-14,67.0,53.5,45.0,50.0,45.8,42.0,91,77,48,30.14,30.04,4,1,9,0.04
2013-2-15,72.0,61.7,48.0,55.0,47.8,43.0,92,63,37,30.24,30.07,8,3,16,0.02
2013-2-16,63.0,53.5,45.0,48.0,35.3,26.0,83,53,27,30.37,30.22,11,4,20,0.01
2013-2-17,70.0,60.4,46.0,54.0,48.6,41.0,84,66,49,30.26,30.12,8,4,19,0.00
2013-2-18,75.0,69.9,63.0,69.0,62.7,54.0,89,78,71,30.12,29.87,15,8,28,0.25
2013-2-19,69.0,61.0,54.0,50.0,44.2,35.0,79,56,28,30.22,30.08,10,5,16,0.49
2013-2-20,65.0,58.6,53.0,55.0,45.9,37.0,77,63,51,30.18,29.92,13,7,22,0.00
2013-2-21,69.0,64.4,61.0,67.0,60.1,54.0,92,86,78,29.90,29.75,14,11,23,0.00
2013-2-22,71.0,66.1,63.0,65.0,57.3,53.0,92,74,60,29.93,29.84,7,5,13,0.01
2013-2-23,73.0,62.5,56.0,58.0,54.1,51.0,86,75,55,29.96,29.85,8,3,15,0.00
2013-2-24,72.0,62.5,51.0,65.0,56.1,47.0,91,80,60,29.94,29.67,10,3,15,0.04
2013-2-25,68.0,67.4,67.0,66.0,65.2,64.0,93,92,91,29.68,29.57,6,4,10,0.06
2013-3-5,73.0,62.3,57.0,42.0,38.5,35.0,53,42,26,30.24,30.09,8,4,16,0.00
2013-3-6,72.0,56.6,43.0,48.0,36.4,25.0,88,51,18,30.36,30.21,7,3,14,0.00
2013-3-7,69.0,58.2,49.0,52.0,44.9,35.0,89,65,29,30.31,30.19,7,2,11,0.00
2013-3-8,74.0,62.7,53.0,60.0,53.6,50.0,92,74,52,30.24,30.11,10,4,15,0.00
2013-3-13,74.0,64.7,58.0,49.0,42.2,35.0,69,46,24,30.35,30.30,2,0,6,0.00
2013-3-14,70.0,57.5,49.0,48.0,44.1,35.0,85,65,28,30.42,30.34,8,2,13,0.00
2013-3-17,81.0,76.6,74.0,72.0,71.0,69.0,92,83,70,29.81,29.74,10,7,18,0.00
2013-3-18,84.0,77.0,73.0,76.0,71.6,70.0,94,85,65,29.87,29.73,10,4,15,0.00
2013-3-19,81.0,72.2,60.0,71.0,58.8,50.0,92,64,47,29.98,29.87,12,4,17,0.00
2013-3-20,78.0,66.6,58.0,57.0,49.5,35.0,87,57,22,30.16,29.94,10,5,17,0.20
2013-3-21,73.0,65.0,56.0,62.0,51.0,43.0,80,62,35,30.03,29.75,13,5,21,0.08
2013-3-22,83.0,75.0,66.0,75.0,70.4,62.0,92,86,74,29.78,29.67,10,5,18,0.02
2013-3-23,78.0,74.9,73.0,76.0,72.7,71.0,94,93,89,29.75,29.56,5,2,10,0.07
2013-3-25,67.0,54.7,44.0,40.0,32.9,24.0,77,48,20,30.27,30.10,11,6,19,0.01
2013-3-26,64.0,53.7,41.0,36.0,30.5,25.0,75,44,23,30.44,30.29,8,3,16,0.00
2013-3-27,48.0,45.4,44.0,40.0,37.7,35.0,82,75,62,30.35,30.32,0,0,1,0.00